Terminal Aerodrome Forecast
Issued by NWS Cleveland, OH

Home | Current Version | Previous Version | Text Only | Print | Product List | Glossary On
Versions: 1 2 3 4 5 6 7 8 9 10 11 12 13 14 15 16 17 18 19 20 21 22 23
000
FTUS41 KCLE 021100
TAFMFD
TAF
KMFD 021130Z 0212/0312 28010KT P6SM SCT030
      TEMPO 0212/0216 BKN030
     FM030000 VRB03KT P6SM BKN200
     FM031100 13005KT P6SM OVC110=

USA.gov is the U.S. government's official web portal to all federal, state and local government web resources and services.